Time;durP1;ratioP1;P1;durP2;ratioP2;P2;SDS_P1;SDS_P2;PMS_P1;PMS_P2;Temp;Humidity;BMP_temperature;BMP_pressure;BME280_temperature;BME280_humidity;BME280_pressure;Samples;Min_cycle;Max_cycle;Signal;HPM_P1;HPM_P2
2022/03/06 00:01:39;;;;;;;;;;;;;;;3.50;44.84;99986.81;5315680;27;33867;-85
2022/03/06 00:04:08;;;;;;;;;;;;;;;3.47;45.02;99977.38;5314106;27;34932;-87
2022/03/06 00:06:37;;;;;;;;;;;;;;;3.62;44.79;99981.94;5320723;27;34950;-86
2022/03/06 00:09:05;;;;;;;;;;;;;;;3.88;44.41;99979.00;5314249;27;32988;-86
2022/03/06 00:11:34;;;;;;;;;;;;;;;3.99;44.17;99982.66;5314563;27;34859;-85
2022/03/06 00:14:02;;;;;;;;;;;;;;;3.79;44.19;99987.38;5313816;27;35017;-85
2022/03/06 00:16:30;;;;;;;;;;;;;;;4.00;43.72;99987.78;5314455;26;33934;-85
2022/03/06 00:19:01;;;;;;;;;;;;;;;3.99;43.49;99993.78;5320006;27;33371;-86
2022/03/06 00:21:30;;;;;;;;;;;;;;;4.03;42.97;99994.69;5314524;27;33545;-85
2022/03/06 00:23:58;;;;;;;;;;;;;;;3.95;43.03;99994.53;5314071;27;34543;-86
2022/03/06 00:26:27;;;;;;;;;;;;;;;4.00;42.60;99997.19;5314461;27;34088;-85
2022/03/06 00:28:55;;;;;;;;;;;;;;;3.92;42.88;99991.06;5314614;27;32799;-86
2022/03/06 00:31:24;;;;;;;;;;;;;;;3.68;43.49;99986.34;5321033;27;34096;-88
2022/03/06 00:33:53;;;;;;;;;;;;;;;3.42;44.44;99994.37;5317543;27;34209;-85
2022/03/06 00:36:23;;;;;;;;;;;;;;;3.46;44.62;99983.34;5314228;27;34095;-85
2022/03/06 00:38:51;;;;;;;;;;;;;;;3.21;44.95;99979.41;5314054;27;33216;-85
2022/03/06 00:41:20;;;;;;;;;;;;;;;2.56;46.56;99983.09;5314496;27;33763;-86
2022/03/06 00:43:48;;;;;;;;;;;;;;;2.88;45.90;99982.97;5314734;27;34258;-85
2022/03/06 00:46:17;;;;;;;;;;;;;;;3.13;45.89;99993.75;5320730;27;33663;-88
2022/03/06 00:48:45;;;;;;;;;;;;;;;3.39;44.78;99991.75;5314067;27;33379;-85
2022/03/06 00:51:14;;;;;;;;;;;;;;;3.15;45.33;99989.53;5314573;27;34815;-85
2022/03/06 00:53:44;;;;;;;;;;;;;;;3.24;45.08;99984.59;5314594;27;33680;-85
2022/03/06 00:56:12;;;;;;;;;;;;;;;3.41;44.78;99984.97;5314505;27;35911;-85
2022/03/06 00:58:41;;;;;;;;;;;;;;;3.40;45.20;99994.31;5321129;27;33359;-86
2022/03/06 01:01:10;;;;;;;;;;;;;;;3.27;45.60;99984.66;5314355;27;34139;-88
2022/03/06 01:03:40;;;;;;;;;;;;;;;3.19;45.60;99989.62;5311998;27;34686;-86
2022/03/06 01:06:08;;;;;;;;;;;;;;;3.12;45.84;99981.78;5309904;27;34098;-85
2022/03/06 01:08:36;;;;;;;;;;;;;;;3.23;45.21;99980.28;5314209;27;34089;-87
2022/03/06 01:11:07;;;;;;;;;;;;;;;3.32;45.36;99980.50;5320475;27;33799;-85
2022/03/06 01:13:35;;;;;;;;;;;;;;;3.35;45.12;99975.41;5314337;27;34736;-87
2022/03/06 01:16:04;;;;;;;;;;;;;;;3.31;45.03;99976.22;5314292;26;35110;-86
2022/03/06 01:18:34;;;;;;;;;;;;;;;3.34;44.92;99983.97;5314015;27;33362;-85
2022/03/06 01:21:02;;;;;;;;;;;;;;;3.37;44.75;99973.75;5314372;27;33744;-86
2022/03/06 01:23:30;;;;;;;;;;;;;;;3.36;44.80;99969.47;5320874;27;34789;-86
2022/03/06 01:25:59;;;;;;;;;;;;;;;3.29;44.96;99959.94;5314635;27;34170;-87
2022/03/06 01:28:29;;;;;;;;;;;;;;;3.29;44.97;99966.75;5313840;27;33418;-88
2022/03/06 01:30:57;;;;;;;;;;;;;;;3.14;45.32;99967.28;5314389;27;34703;-86
2022/03/06 01:33:26;;;;;;;;;;;;;;;3.20;45.23;99964.84;5315453;27;34275;-86
2022/03/06 01:35:54;;;;;;;;;;;;;;;3.22;45.13;99959.78;5315045;27;34145;-86
2022/03/06 01:38:23;;;;;;;;;;;;;;;3.07;45.56;99953.50;5320680;27;33458;-86
2022/03/06 01:40:51;;;;;;;;;;;;;;;3.06;45.89;99949.19;5314098;27;33878;-86
2022/03/06 01:43:19;;;;;;;;;;;;;;;3.04;45.97;99944.84;5313874;27;34075;-89
2022/03/06 01:45:49;;;;;;;;;;;;;;;3.18;45.37;99936.62;5314255;27;34914;-86
2022/03/06 01:48:18;;;;;;;;;;;;;;;3.22;45.11;99945.25;5314375;27;34912;-86
2022/03/06 01:50:46;;;;;;;;;;;;;;;2.94;45.73;99941.22;5320794;27;33985;-86
2022/03/06 01:53:15;;;;;;;;;;;;;;;2.97;46.19;99938.72;5317447;27;34089;-85
2022/03/06 01:55:43;;;;;;;;;;;;;;;2.97;46.09;99934.50;5314118;27;34128;-87
2022/03/06 01:58:12;;;;;;;;;;;;;;;2.95;46.32;99933.59;5314325;27;33226;-86
2022/03/06 02:00:41;;;;;;;;;;;;;;;3.16;45.65;99932.28;5313539;27;34656;-86
2022/03/06 02:03:11;;;;;;;;;;;;;;;2.92;46.36;99928.41;5320382;27;35095;-86
2022/03/06 02:05:40;;;;;;;;;;;;;;;2.75;46.65;99932.28;5313616;27;34092;-86
2022/03/06 02:08:08;;;;;;;;;;;;;;;2.77;46.86;99933.19;5313996;27;33792;-86
2022/03/06 02:10:37;;;;;;;;;;;;;;;2.59;47.12;99925.09;5317081;27;33883;-86
2022/03/06 02:13:05;;;;;;;;;;;;;;;2.58;47.17;99923.34;5314193;27;33548;-87
2022/03/06 02:15:34;;;;;;;;;;;;;;;2.45;47.20;99924.78;5320039;26;34025;-85
2022/03/06 02:18:02;;;;;;;;;;;;;;;2.55;47.26;99919.03;5313622;27;34099;-86
2022/03/06 02:20:33;;;;;;;;;;;;;;;2.52;47.19;99930.06;5313108;27;34709;-86
2022/03/06 02:23:04;;;;;;;;;;;;;;;2.54;46.98;99925.84;5313628;27;34217;-87
2022/03/06 02:25:33;;;;;;;;;;;;;;;2.30;47.73;99933.81;5313835;27;34636;-87
2022/03/06 02:28:02;;;;;;;;;;;;;;;2.41;47.57;99928.09;5316656;27;34168;-86
2022/03/06 02:30:33;;;;;;;;;;;;;;;2.49;47.34;99926.56;5319852;27;34754;-86
2022/03/06 02:35:50;;;;;;;;;;;;;;;2.47;47.67;99925.69;5313105;27;33812;-87
2022/03/06 02:38:20;;;;;;;;;;;;;;;2.33;47.87;99933.88;5313492;27;34061;-89
2022/03/06 02:40:49;;;;;;;;;;;;;;;2.21;48.05;99925.91;5313209;27;33695;-86
2022/03/06 02:43:17;;;;;;;;;;;;;;;2.40;47.60;99934.91;5320105;27;34188;-86
2022/03/06 02:45:46;;;;;;;;;;;;;;;2.45;47.69;99924.78;5316908;27;35103;-85
2022/03/06 02:48:14;;;;;;;;;;;;;;;2.64;47.27;99926.91;5313989;27;33069;-86
2022/03/06 02:50:44;;;;;;;;;;;;;;;2.33;47.99;99930.47;5314612;27;34033;-86
2022/03/06 02:53:13;;;;;;;;;;;;;;;2.53;47.23;99926.66;5314775;27;35145;-86
2022/03/06 02:55:43;;;;;;;;;;;;;;;2.40;47.67;99926.38;5314529;27;34367;-87
2022/03/06 02:58:12;;;;;;;;;;;;;;;2.52;47.27;99924.09;5321361;27;32598;-86
2022/03/06 03:00:41;;;;;;;;;;;;;;;2.41;47.63;99926.38;5314585;27;33763;-89
2022/03/06 03:03:09;;;;;;;;;;;;;;;2.47;47.59;99933.37;5314746;27;34143;-90
2022/03/06 03:05:38;;;;;;;;;;;;;;;2.38;47.62;99926.31;5314414;27;34782;-89
2022/03/06 03:08:07;;;;;;;;;;;;;;;2.32;47.70;99921.94;5314620;27;33450;-86
2022/03/06 03:10:35;;;;;;;;;;;;;;;2.43;47.26;99917.03;5320971;27;34106;-88
2022/03/06 03:13:05;;;;;;;;;;;;;;;2.43;47.35;99913.62;5314847;27;34660;-86
2022/03/06 03:15:34;;;;;;;;;;;;;;;2.28;47.65;99921.81;5314376;26;34294;-86
2022/03/06 03:18:02;;;;;;;;;;;;;;;2.30;47.91;99915.03;5314344;27;33312;-87
2022/03/06 03:20:31;;;;;;;;;;;;;;;2.13;48.05;99924.87;5314554;27;34253;-86
2022/03/06 03:22:59;;;;;;;;;;;;;;;2.33;47.60;99920.22;5320676;27;34746;-87
2022/03/06 03:25:27;;;;;;;;;;;;;;;2.31;47.91;99922.75;5314454;27;34275;-87
2022/03/06 03:27:56;;;;;;;;;;;;;;;2.06;48.47;99928.09;5314630;27;33452;-87
2022/03/06 03:30:26;;;;;;;;;;;;;;;1.89;48.64;99928.53;5314367;27;34891;-88
2022/03/06 03:32:54;;;;;;;;;;;;;;;1.70;49.09;99929.75;5314548;27;34325;-87
2022/03/06 03:35:23;;;;;;;;;;;;;;;1.83;49.04;99927.50;5321185;27;34865;-86
2022/03/06 03:37:51;;;;;;;;;;;;;;;1.81;49.15;99934.28;5315040;27;33504;-87
2022/03/06 03:40:19;;;;;;;;;;;;;;;1.66;49.70;99929.62;5314830;27;33649;-87
2022/03/06 03:42:48;;;;;;;;;;;;;;;1.95;48.88;99939.75;5314975;27;34295;-87
2022/03/06 03:45:16;;;;;;;;;;;;;;;2.03;48.55;99925.44;5314291;27;33506;-88
2022/03/06 03:47:46;;;;;;;;;;;;;;;1.96;48.78;99937.25;5319637;27;33279;-87
2022/03/06 03:50:15;;;;;;;;;;;;;;;1.96;48.80;99939.81;5320722;27;33508;-89
2022/03/06 03:52:43;;;;;;;;;;;;;;;1.87;49.05;99940.44;5314346;27;34958;-87
2022/03/06 03:55:12;;;;;;;;;;;;;;;1.87;48.99;99944.69;5314999;27;34774;-90
2022/03/06 03:57:41;;;;;;;;;;;;;;;1.83;49.10;99945.41;5314608;27;33146;-88
2022/03/06 04:00:10;;;;;;;;;;;;;;;2.04;48.33;99937.44;5314068;27;34593;-87
2022/03/06 04:02:39;;;;;;;;;;;;;;;1.89;48.49;99943.91;5320974;27;35186;-87
2022/03/06 04:05:09;;;;;;;;;;;;;;;1.95;48.51;99952.56;5314586;27;34644;-87
2022/03/06 04:07:37;;;;;;;;;;;;;;;1.76;48.99;99951.19;5314665;27;32858;-87
2022/03/06 04:10:06;;;;;;;;;;;;;;;1.91;48.59;99954.19;5314869;27;33713;-87
2022/03/06 04:12:34;;;;;;;;;;;;;;;1.82;48.86;99954.78;5314929;27;35138;-87
2022/03/06 04:15:03;;;;;;;;;;;;;;;1.75;49.07;99949.47;5320411;27;34991;-88
2022/03/06 04:17:32;;;;;;;;;;;;;;;1.59;49.33;99953.31;5314384;26;33266;-86
2022/03/06 04:20:00;;;;;;;;;;;;;;;1.83;48.88;99955.66;5314095;27;34284;-87
2022/03/06 04:22:30;;;;;;;;;;;;;;;1.88;48.72;99954.06;5306956;27;34739;-90
2022/03/06 04:24:58;;;;;;;;;;;;;;;1.75;49.10;99958.00;5313362;27;33840;-86
2022/03/06 04:27:27;;;;;;;;;;;;;;;1.80;49.11;99958.13;5321190;27;34113;-89
2022/03/06 04:29:55;;;;;;;;;;;;;;;1.77;49.17;99958.94;5314189;27;34158;-87
2022/03/06 04:32:24;;;;;;;;;;;;;;;1.76;48.96;99961.44;5314267;27;34244;-85
2022/03/06 04:34:52;;;;;;;;;;;;;;;1.84;48.58;99955.69;5314975;27;34745;-87
2022/03/06 04:37:20;;;;;;;;;;;;;;;1.48;49.49;99955.59;5314732;27;33018;-92
2022/03/06 04:39:51;;;;;;;;;;;;;;;1.75;49.08;99960.56;5320857;27;34117;-88
2022/03/06 04:42:19;;;;;;;;;;;;;;;1.45;49.70;99958.94;5318922;27;34343;-88
2022/03/06 04:44:48;;;;;;;;;;;;;;;1.55;49.56;99965.16;5314318;27;34875;-87
2022/03/06 04:47:16;;;;;;;;;;;;;;;1.52;49.66;99962.50;5314920;27;33778;-90
2022/03/06 04:49:45;;;;;;;;;;;;;;;1.41;49.61;99964.75;5314553;27;34652;-87
2022/03/06 04:52:13;;;;;;;;;;;;;;;1.70;49.15;99962.16;5314439;27;34795;-87
2022/03/06 04:54:42;;;;;;;;;;;;;;;1.67;49.45;99962.94;5320337;27;34325;-88
2022/03/06 04:57:11;;;;;;;;;;;;;;;1.74;49.00;99965.63;5314505;27;33680;-88
2022/03/06 04:59:40;;;;;;;;;;;;;;;1.75;48.97;99960.56;5315778;27;34844;-87
2022/03/06 05:02:08;;;;;;;;;;;;;;;1.71;48.71;99959.59;5314095;27;33892;-87
2022/03/06 05:04:37;;;;;;;;;;;;;;;1.73;48.83;99957.09;5314467;27;34141;-87
2022/03/06 05:07:05;;;;;;;;;;;;;;;1.58;49.07;99961.81;5321119;27;33915;-88
2022/03/06 05:09:34;;;;;;;;;;;;;;;1.60;49.40;99960.16;5314671;27;33787;-87
2022/03/06 05:12:02;;;;;;;;;;;;;;;1.69;48.82;99961.28;5313718;27;34305;-87
2022/03/06 05:14:32;;;;;;;;;;;;;;;1.66;48.71;99966.28;5314498;27;34482;-87
2022/03/06 05:17:01;;;;;;;;;;;;;;;1.66;48.25;99966.28;5315489;26;32893;-87
2022/03/06 05:19:29;;;;;;;;;;;;;;;1.69;48.42;99963.84;5320756;27;34758;-86
2022/03/06 05:21:59;;;;;;;;;;;;;;;1.87;47.84;99968.56;5293353;27;32370;-86
2022/03/06 05:24:28;;;;;;;;;;;;;;;1.70;48.18;99970.69;5314176;27;34278;-87
2022/03/06 05:26:56;;;;;;;;;;;;;;;1.77;48.21;99975.97;5314452;27;33454;-86
2022/03/06 05:29:24;;;;;;;;;;;;;;;1.57;48.22;99973.75;5314157;27;34876;-86
2022/03/06 05:31:54;;;;;;;;;;;;;;;1.59;48.19;99974.62;5319995;27;34190;-87
2022/03/06 05:34:22;;;;;;;;;;;;;;;1.49;48.68;99968.38;5314206;27;34797;-88
2022/03/06 05:36:51;;;;;;;;;;;;;;;1.56;48.43;99966.00;5315620;27;33880;-87
2022/03/06 05:39:19;;;;;;;;;;;;;;;1.57;48.19;99976.28;5314694;27;34778;-87
2022/03/06 05:41:48;;;;;;;;;;;;;;;2.06;47.50;99969.91;5314405;27;34217;-87
2022/03/06 05:44:16;;;;;;;;;;;;;;;2.29;46.65;99970.47;5320510;27;33941;-87
2022/03/06 05:46:45;;;;;;;;;;;;;;;2.33;46.52;99976.56;5319620;27;33205;-86
2022/03/06 05:49:15;;;;;;;;;;;;;;;2.41;46.45;99974.16;5314091;27;34253;-87
2022/03/06 05:51:44;;;;;;;;;;;;;;;2.19;46.62;99968.53;5313433;27;34988;-86
2022/03/06 05:54:12;;;;;;;;;;;;;;;1.51;48.13;99970.13;5314176;27;33788;-86
2022/03/06 05:56:41;;;;;;;;;;;;;;;2.02;46.87;99975.78;5313798;27;33669;-87
2022/03/06 05:59:09;;;;;;;;;;;;;;;1.93;47.58;99980.66;5320035;27;33574;-87
2022/03/06 06:01:38;;;;;;;;;;;;;;;1.81;47.43;99980.31;5313782;27;34324;-86
2022/03/06 06:04:12;;;;;;;;;;;;;;;2.07;46.87;99974.19;5313850;27;34372;-86
2022/03/06 06:06:42;;;;;;;;;;;;;;;1.98;46.84;99966.31;5313339;27;32708;-86
2022/03/06 06:09:14;;;;;;;;;;;;;;;1.90;47.48;99978.00;5313949;27;33959;-87
2022/03/06 06:11:42;;;;;;;;;;;;;;;2.72;45.41;99970.63;5320273;27;33957;-86
2022/03/06 06:14:11;;;;;;;;;;;;;;;2.71;45.32;99962.09;5314049;27;34319;-87
2022/03/06 06:16:39;;;;;;;;;;;;;;;2.62;45.95;99959.31;5313368;26;33222;-86
2022/03/06 06:19:08;;;;;;;;;;;;;;;3.01;44.96;99960.19;5313749;27;33955;-85
2022/03/06 06:21:36;;;;;;;;;;;;;;;2.91;44.98;99949.72;5313615;27;34403;-86
2022/03/06 06:24:07;;;;;;;;;;;;;;;2.97;44.93;99951.53;5321312;27;34711;-86
2022/03/06 06:26:35;;;;;;;;;;;;;;;2.94;45.16;99951.47;5317567;27;33858;-87
2022/03/06 06:29:03;;;;;;;;;;;;;;;2.90;45.48;99944.56;5314676;27;33875;-86
2022/03/06 06:31:32;;;;;;;;;;;;;;;2.50;46.48;99954.78;5314815;27;35153;-86
2022/03/06 06:34:00;;;;;;;;;;;;;;;3.09;45.21;99956.06;5315137;27;34713;-86
2022/03/06 06:36:29;;;;;;;;;;;;;;;2.34;46.79;99956.13;5316184;27;33522;-86
2022/03/06 06:38:57;;;;;;;;;;;;;;;2.93;46.00;99955.75;5321087;27;34141;-86
2022/03/06 06:41:27;;;;;;;;;;;;;;;3.36;44.56;99963.50;5314378;27;34613;-86
2022/03/06 06:43:55;;;;;;;;;;;;;;;2.99;45.72;99961.00;5315065;27;34670;-85
2022/03/06 06:46:24;;;;;;;;;;;;;;;2.92;45.43;99956.59;5294609;27;33344;-86
2022/03/06 06:48:52;;;;;;;;;;;;;;;3.24;44.73;99969.22;5314394;27;34850;-85
2022/03/06 06:51:21;;;;;;;;;;;;;;;3.04;45.20;99958.53;5320971;27;33776;-86
2022/03/06 06:53:49;;;;;;;;;;;;;;;2.96;45.31;99966.06;5314800;27;33913;-86
2022/03/06 06:56:19;;;;;;;;;;;;;;;2.81;45.69;99965.72;5314910;27;33329;-85
2022/03/06 06:58:48;;;;;;;;;;;;;;;2.39;46.55;99966.44;5315170;27;34541;-87
2022/03/06 07:01:17;;;;;;;;;;;;;;;2.68;46.27;99968.81;5314941;27;34736;-85
2022/03/06 07:03:46;;;;;;;;;;;;;;;2.42;46.44;99961.41;5321294;27;35007;-85
2022/03/06 07:06:15;;;;;;;;;;;;;;;3.02;45.25;99964.47;5314515;27;34007;-85
2022/03/06 07:08:43;;;;;;;;;;;;;;;2.25;46.91;99971.25;5314577;27;34135;-86
2022/03/06 07:11:12;;;;;;;;;;;;;;;2.83;45.50;99968.31;5315072;27;35009;-86
2022/03/06 07:13:40;;;;;;;;;;;;;;;3.12;44.86;99972.41;5314805;27;33817;-85
2022/03/06 07:16:10;;;;;;;;;;;;;;;3.14;44.70;99981.00;5320997;26;33349;-86
2022/03/06 07:18:38;;;;;;;;;;;;;;;3.05;44.59;99975.66;5314323;27;33751;-86
2022/03/06 07:21:07;;;;;;;;;;;;;;;3.44;44.19;99974.75;5314860;27;34264;-86
2022/03/06 07:23:35;;;;;;;;;;;;;;;3.33;43.98;99976.22;5315004;27;34808;-85
2022/03/06 07:26:04;;;;;;;;;;;;;;;3.24;44.50;99976.91;5293885;27;32411;-86
2022/03/06 07:28:32;;;;;;;;;;;;;;;2.73;45.52;99977.47;5320854;27;33961;-86
2022/03/06 07:31:01;;;;;;;;;;;;;;;2.83;45.20;99970.87;5298941;27;33703;-86
2022/03/06 07:33:31;;;;;;;;;;;;;;;2.53;45.86;99967.62;5314245;27;34025;-86
2022/03/06 07:35:59;;;;;;;;;;;;;;;3.20;44.88;99963.16;5314417;27;33093;-86
2022/03/06 07:38:28;;;;;;;;;;;;;;;2.76;45.74;99969.87;5315401;27;34221;-86
2022/03/06 07:40:56;;;;;;;;;;;;;;;2.75;45.57;99970.69;5314779;27;34236;-86
2022/03/06 07:43:25;;;;;;;;;;;;;;;3.43;44.29;99970.44;5321363;27;33855;-85
2022/03/06 07:45:53;;;;;;;;;;;;;;;3.02;45.08;99967.91;5314408;27;32543;-86
2022/03/06 07:48:21;;;;;;;;;;;;;;;3.13;44.74;99973.25;5314616;27;33656;-87
2022/03/06 07:50:51;;;;;;;;;;;;;;;4.06;42.63;99976.78;5314237;27;33951;-86
2022/03/06 07:53:20;;;;;;;;;;;;;;;3.50;44.00;99961.19;5314574;27;34198;-86
2022/03/06 07:55:48;;;;;;;;;;;;;;;3.47;43.80;99961.13;5320770;27;33393;-87
2022/03/06 07:58:17;;;;;;;;;;;;;;;3.46;43.53;99957.69;5314103;27;33434;-86
2022/03/06 08:00:45;;;;;;;;;;;;;;;3.22;43.66;99958.06;5314494;27;34165;-86
2022/03/06 08:03:15;;;;;;;;;;;;;;;3.12;44.57;99951.88;5313938;27;34373;-88
2022/03/06 08:05:44;;;;;;;;;;;;;;;3.68;42.84;99956.41;5294942;27;33901;-86
2022/03/06 08:08:14;;;;;;;;;;;;;;;3.79;43.31;99960.06;5321186;27;34247;-86
2022/03/06 08:10:42;;;;;;;;;;;;;;;3.29;44.50;99970.19;5314419;27;35020;-85
2022/03/06 08:13:11;;;;;;;;;;;;;;;3.53;44.14;99967.25;5314019;27;34267;-85
2022/03/06 08:15:41;;;;;;;;;;;;;;;3.81;43.17;99965.19;5314977;26;33408;-86
2022/03/06 08:18:10;;;;;;;;;;;;;;;2.91;44.49;99957.41;5313804;27;34082;-87
2022/03/06 08:20:38;;;;;;;;;;;;;;;3.59;43.16;99959.66;5320134;27;33482;-86
2022/03/06 08:23:07;;;;;;;;;;;;;;;3.65;43.25;99956.37;5315068;27;35554;-86
2022/03/06 08:25:37;;;;;;;;;;;;;;;3.77;42.96;99951.47;5317553;27;33353;-88
2022/03/06 08:28:05;;;;;;;;;;;;;;;3.67;42.80;99948.66;5314365;27;34435;-85
2022/03/06 08:30:33;;;;;;;;;;;;;;;3.79;42.24;99949.78;5314043;27;34245;-85
2022/03/06 08:33:02;;;;;;;;;;;;;;;4.05;41.47;99944.22;5313665;27;34416;-86
2022/03/06 08:35:31;;;;;;;;;;;;;;;3.73;41.70;99939.41;5320902;27;33250;-85
2022/03/06 08:37:59;;;;;;;;;;;;;;;4.16;41.46;99940.16;5314038;27;34069;-85
2022/03/06 08:40:28;;;;;;;;;;;;;;;4.07;41.26;99942.56;5293791;27;32743;-85
2022/03/06 08:42:57;;;;;;;;;;;;;;;4.20;41.36;99933.34;5314103;27;34298;-86
2022/03/06 08:45:26;;;;;;;;;;;;;;;4.66;40.22;99929.81;5313435;27;32841;-86
2022/03/06 08:47:54;;;;;;;;;;;;;;;5.12;39.22;99930.44;5320466;27;34824;-86
2022/03/06 08:50:23;;;;;;;;;;;;;;;4.55;40.44;99931.34;5312968;27;33929;-86
2022/03/06 08:52:51;;;;;;;;;;;;;;;4.69;40.56;99926.41;5313092;27;34449;-87
2022/03/06 08:55:20;;;;;;;;;;;;;;;5.00;39.41;99930.28;5313952;27;32906;-86
2022/03/06 08:57:48;;;;;;;;;;;;;;;3.99;40.50;99932.16;5313396;27;34339;-86
2022/03/06 09:00:18;;;;;;;;;;;;;;;4.10;40.31;99942.59;5320664;27;33684;-87
2022/03/06 09:02:47;;;;;;;;;;;;;;;4.47;39.96;99936.38;5313913;27;33475;-86
2022/03/06 09:05:15;;;;;;;;;;;;;;;4.64;38.98;99935.75;5313974;27;33164;-86
2022/03/06 09:07:44;;;;;;;;;;;;;;;4.15;39.75;99940.13;5293711;27;32881;-85
2022/03/06 09:10:12;;;;;;;;;;;;;;;5.09;38.27;99930.38;5313389;27;35076;-86
2022/03/06 09:12:41;;;;;;;;;;;;;;;4.93;37.69;99936.19;5319767;27;33983;-86
2022/03/06 09:15:10;;;;;;;;;;;;;;;4.51;38.93;99927.00;5312689;27;32898;-85
2022/03/06 09:17:40;;;;;;;;;;;;;;;4.79;38.64;99930.84;5312817;26;34901;-84
2022/03/06 09:20:09;;;;;;;;;;;;;;;4.64;38.74;99931.50;5312211;27;34753;-85
2022/03/06 09:22:37;;;;;;;;;;;;;;;5.16;38.06;99931.31;5312778;27;34878;-86
2022/03/06 09:25:06;;;;;;;;;;;;;;;5.37;37.46;99927.28;5300148;27;32256;-85
2022/03/06 09:27:35;;;;;;;;;;;;;;;5.76;36.80;99930.28;5319388;27;34036;-85
2022/03/06 09:30:04;;;;;;;;;;;;;;;5.53;36.41;99926.59;5313565;27;35002;-85
2022/03/06 09:32:32;;;;;;;;;;;;;;;5.16;37.97;99920.19;5313904;27;34029;-86
2022/03/06 09:35:02;;;;;;;;;;;;;;;5.29;38.06;99922.03;5313590;27;33898;-86
2022/03/06 09:37:31;;;;;;;;;;;;;;;5.41;37.39;99919.59;5313139;27;32899;-86
2022/03/06 09:40:01;;;;;;;;;;;;;;;5.09;38.02;99916.66;5320175;27;34318;-86
2022/03/06 09:42:30;;;;;;;;;;;;;;;5.39;37.77;99920.44;5313614;27;34808;-85
2022/03/06 09:44:58;;;;;;;;;;;;;;;5.15;38.40;99919.31;5313690;27;33316;-85
2022/03/06 09:47:27;;;;;;;;;;;;;;;4.67;39.02;99916.09;5313671;27;34036;-89
2022/03/06 09:49:55;;;;;;;;;;;;;;;5.11;37.98;99910.69;5313231;27;34662;-85
2022/03/06 09:52:25;;;;;;;;;;;;;;;4.98;38.75;99906.25;5319861;27;33933;-85
2022/03/06 09:54:54;;;;;;;;;;;;;;;5.60;37.82;99912.94;5312644;27;33511;-86
2022/03/06 09:57:41;;;;;;;;;;;;;;;5.90;37.14;99903.81;5293437;27;32862;-85
2022/03/06 10:00:10;;;;;;;;;;;;;;;5.41;38.05;99906.75;5314172;27;33974;-86
2022/03/06 10:02:51;;;;;;;;;;;;;;;5.34;38.07;99904.97;5314346;27;34670;-87
2022/03/06 10:05:27;;;;;;;;;;;;;;;5.86;37.52;99910.66;5314221;27;33215;-85
2022/03/06 10:08:04;;;;;;;;;;;;;;;5.81;37.52;99901.16;5321037;27;34747;-86
2022/03/06 10:10:36;;;;;;;;;;;;;;;5.63;37.55;99906.97;5321103;27;33810;-86
2022/03/06 10:13:07;;;;;;;;;;;;;;;5.53;37.91;99906.91;5292812;27;34218;-86
2022/03/06 10:15:38;;;;;;;;;;;;;;;6.10;37.53;99898.88;5313219;26;33315;-86
2022/03/06 10:18:07;;;;;;;;;;;;;;;6.01;37.54;99896.22;5311509;27;34200;-86
2022/03/06 10:20:35;;;;;;;;;;;;;;;5.68;37.90;99898.47;5313758;27;34127;-85
2022/03/06 10:23:05;;;;;;;;;;;;;;;6.14;36.41;99900.63;5321106;27;34862;-85
2022/03/06 10:25:34;;;;;;;;;;;;;;;6.03;36.75;99902.25;5314280;27;33167;-86
2022/03/06 10:28:02;;;;;;;;;;;;;;;6.41;35.69;99899.97;5313973;27;34004;-86
2022/03/06 10:30:31;;;;;;;;;;;;;;;6.56;35.88;99900.06;5313155;27;33742;-87
2022/03/06 10:33:01;;;;;;;;;;;;;;;6.91;34.60;99893.38;5314208;27;33744;-85
2022/03/06 10:35:36;;;;;;;;;;;;;;;6.89;34.77;99885.66;5319950;27;33435;-85
2022/03/06 10:38:18;;;;;;;;;;;;;;;6.60;35.49;99881.19;5317820;27;34808;-86
2022/03/06 10:40:50;;;;;;;;;;;;;;;7.06;34.63;99878.00;5314293;27;34087;-86
2022/03/06 10:43:20;;;;;;;;;;;;;;;7.24;34.12;99875.47;5314126;27;33779;-86
2022/03/06 10:45:48;;;;;;;;;;;;;;;6.78;35.04;99877.00;5314969;27;33282;-86
2022/03/06 10:48:17;;;;;;;;;;;;;;;6.20;35.94;99872.31;5314580;27;34193;-85
2022/03/06 10:50:46;;;;;;;;;;;;;;;7.02;34.87;99871.94;5320883;27;34792;-85
2022/03/06 10:53:19;;;;;;;;;;;;;;;6.66;35.11;99859.75;5314256;27;34954;-86
2022/03/06 10:55:48;;;;;;;;;;;;;;;7.23;34.76;99871.16;5314455;27;33485;-85
2022/03/06 10:58:17;;;;;;;;;;;;;;;7.20;34.21;99857.38;5316373;27;34955;-86
2022/03/06 11:00:45;;;;;;;;;;;;;;;7.09;34.19;99859.94;5314391;27;33650;-86
2022/03/06 11:03:15;;;;;;;;;;;;;;;7.42;33.82;99843.69;5321009;27;34872;-86
2022/03/06 11:05:44;;;;;;;;;;;;;;;7.75;33.37;99839.41;5320053;27;33110;-87
2022/03/06 11:08:14;;;;;;;;;;;;;;;7.06;35.11;99844.44;5313736;27;34043;-85
2022/03/06 11:10:44;;;;;;;;;;;;;;;6.18;35.91;99837.97;5313680;27;33839;-86
2022/03/06 11:13:13;;;;;;;;;;;;;;;6.59;35.95;99821.88;5313655;27;34182;-86
2022/03/06 11:15:42;;;;;;;;;;;;;;;7.15;35.13;99818.69;5312132;26;33985;-86
2022/03/06 11:18:10;;;;;;;;;;;;;;;6.46;36.07;99818.41;5318497;27;34290;-85
2022/03/06 11:20:40;;;;;;;;;;;;;;;7.43;34.26;99811.00;5312048;27;33880;-85
2022/03/06 11:23:12;;;;;;;;;;;;;;;7.71;34.11;99804.16;5314051;27;33728;-86
2022/03/06 11:25:43;;;;;;;;;;;;;;;8.00;33.23;99806.72;5311659;27;33250;-86
2022/03/06 11:28:22;;;;;;;;;;;;;;;7.61;33.71;99811.03;5313538;27;33703;-86
2022/03/06 11:30:52;;;;;;;;;;;;;;;8.14;33.22;99809.25;5317840;27;34687;-86
2022/03/06 11:33:21;;;;;;;;;;;;;;;7.30;34.29;99804.06;5317764;27;34550;-85
2022/03/06 11:35:50;;;;;;;;;;;;;;;8.21;32.69;99797.19;5314069;27;34297;-85
2022/03/06 11:38:20;;;;;;;;;;;;;;;8.25;32.73;99804.09;5313685;27;33722;-85
2022/03/06 11:40:49;;;;;;;;;;;;;;;6.83;34.85;99800.50;5314436;27;35041;-87
2022/03/06 11:43:32;;;;;;;;;;;;;;;7.58;33.57;99790.34;5312234;27;34411;-86
2022/03/06 11:46:04;;;;;;;;;;;;;;;7.71;33.19;99791.22;5319283;27;33332;-85
2022/03/06 11:48:52;;;;;;;;;;;;;;;8.04;33.35;99789.47;5313244;27;34061;-86
2022/03/06 11:51:27;;;;;;;;;;;;;;;7.14;34.65;99791.16;5315607;27;34188;-86
2022/03/06 11:53:56;;;;;;;;;;;;;;;7.89;33.45;99787.78;5313985;27;33913;-85
2022/03/06 11:56:45;;;;;;;;;;;;;;;8.15;32.37;99785.16;5314080;27;32974;-87
2022/03/06 11:59:38;;;;;;;;;;;;;;;8.42;31.80;99781.69;5314829;27;34072;-85
2022/03/06 12:02:10;;;;;;;;;;;;;;;8.34;31.96;99780.81;5299352;27;33330;-86
2022/03/06 12:04:40;;;;;;;;;;;;;;;8.87;31.21;99772.03;5316261;27;34827;-86
2022/03/06 12:07:09;;;;;;;;;;;;;;;9.00;31.03;99767.63;5319835;27;34058;-85
2022/03/06 12:09:38;;;;;;;;;;;;;;;8.34;32.02;99770.47;5314479;27;34162;-85
2022/03/06 12:12:08;;;;;;;;;;;;;;;7.86;33.10;99767.97;5313370;27;34213;-86
2022/03/06 12:14:37;;;;;;;;;;;;;;;8.60;31.75;99757.50;5314749;27;33667;-85
2022/03/06 12:17:26;;;;;;;;;;;;;;;8.17;32.72;99767.09;5314263;26;33374;-85
2022/03/06 12:20:14;;;;;;;;;;;;;;;8.72;31.32;99753.97;5314667;27;34079;-88
2022/03/06 12:22:48;;;;;;;;;;;;;;;8.61;31.71;99754.03;5321060;27;35043;-85
2022/03/06 12:25:20;;;;;;;;;;;;;;;8.79;31.67;99758.25;5314303;27;34214;-85
2022/03/06 12:28:07;;;;;;;;;;;;;;;9.02;31.18;99750.37;5314697;27;33059;-86
2022/03/06 12:30:38;;;;;;;;;;;;;;;9.11;30.39;99747.75;5312121;27;34477;-85
2022/03/06 12:33:40;;;;;;;;;;;;;;;9.02;30.52;99752.09;5311813;27;34482;-84
2022/03/06 12:36:09;;;;;;;;;;;;;;;8.07;32.29;99751.59;5242643;27;34168;-84
2022/03/06 12:38:39;;;;;;;;;;;;;;;8.88;31.17;99747.00;5243024;27;33744;-86
2022/03/06 12:41:08;;;;;;;;;;;;;;;9.01;30.80;99743.47;5251795;27;33141;-85
2022/03/06 12:43:38;;;;;;;;;;;;;;;9.00;30.71;99738.31;5242394;27;33350;-85
2022/03/06 12:46:07;;;;;;;;;;;;;;;8.99;30.87;99742.63;5242912;27;33743;-85
2022/03/06 12:48:35;;;;;;;;;;;;;;;9.18;30.46;99727.81;5244647;27;33845;-84
2022/03/06 12:51:04;;;;;;;;;;;;;;;8.50;31.34;99737.69;5241626;27;34584;-85
2022/03/06 12:53:32;;;;;;;;;;;;;;;9.05;30.93;99731.38;5246502;27;34137;-85
2022/03/06 12:56:02;;;;;;;;;;;;;;;8.90;30.41;99722.84;5241142;27;34136;-86
2022/03/06 12:58:37;;;;;;;;;;;;;;;9.22;29.84;99715.75;5240020;27;33212;-86
2022/03/06 13:01:06;;;;;;;;;;;;;;;9.39;29.54;99724.22;5241446;27;34086;-86
2022/03/06 13:03:35;;;;;;;;;;;;;;;9.74;29.70;99718.75;5241840;27;34111;-86
2022/03/06 13:06:13;;;;;;;;;;;;;;;9.87;29.41;99718.63;5249233;27;34099;-86
2022/03/06 13:08:42;;;;;;;;;;;;;;;9.86;29.50;99714.31;5309656;27;34004;-86
2022/03/06 13:11:12;;;;;;;;;;;;;;;10.08;29.03;99709.78;5310768;27;34022;-86
2022/03/06 13:13:41;;;;;;;;;;;;;;;9.94;29.07;99712.53;5309803;27;34364;-86